Time;durP1;ratioP1;P1;durP2;ratioP2;P2;SDS_P1;SDS_P2;PMS_P1;PMS_P2;Temp;Humidity;BMP_temperature;BMP_pressure;BME280_temperature;BME280_humidity;BME280_pressure;Samples;Min_cycle;Max_cycle;Signal;HPM_P1;HPM_P2
2023/03/26 00:01:53;;;;;;;4.10;2.97;;;9.70;91.60;;;;;;5008958;28;20178;-87
2023/03/26 00:04:20;;;;;;;7.30;2.87;;;9.70;91.80;;;;;;5026495;28;20217;-86
2023/03/26 00:06:47;;;;;;;5.63;2.63;;;9.80;91.60;;;;;;5038338;28;20200;-85
2023/03/26 00:09:14;;;;;;;4.43;2.40;;;9.90;91.50;;;;;;5027668;28;20188;-86
2023/03/26 00:11:41;;;;;;;3.17;2.43;;;9.90;92.40;;;;;;5027650;28;20204;-88
2023/03/26 00:14:08;;;;;;;5.07;2.90;;;9.80;90.00;;;;;;5029219;28;20192;-85
2023/03/26 00:16:34;;;;;;;4.43;2.80;;;9.80;91.70;;;;;;5030376;28;20208;-86
2023/03/26 00:19:01;;;;;;;3.53;2.40;;;9.70;91.50;;;;;;5047384;28;20173;-83
2023/03/26 00:21:29;;;;;;;3.03;2.37;;;9.80;90.20;;;;;;5045962;28;20188;-83
2023/03/26 00:24:05;;;;;;;3.90;2.63;;;9.80;90.70;;;;;;5047216;28;20198;-84
2023/03/26 00:26:32;;;;;;;4.20;2.70;;;9.90;89.10;;;;;;5048490;28;20321;-85
2023/03/26 00:28:59;;;;;;;3.67;2.70;;;10.10;89.20;;;;;;5021809;28;20212;-86
2023/03/26 00:31:25;;;;;;;4.70;2.40;;;10.10;88.40;;;;;;5047336;28;20456;-81
2023/03/26 00:33:54;;;;;;;4.90;2.60;;;10.10;88.20;;;;;;5047142;28;20199;-85
2023/03/26 00:36:21;;;;;;;4.70;2.57;;;10.20;87.70;;;;;;5041507;28;20695;-89
2023/03/26 00:38:47;;;;;;;3.83;2.70;;;10.20;87.10;;;;;;5045563;28;20198;-82
2023/03/26 00:41:24;;;;;;;4.47;2.50;;;10.10;87.90;;;;;;5045220;28;20206;-87
2023/03/26 00:43:54;;;;;;;5.60;3.07;;;10.00;88.60;;;;;;5030495;28;20269;-86
2023/03/26 00:46:20;;;;;;;3.87;2.80;;;9.80;89.40;;;;;;5046280;28;20255;-84
2023/03/26 00:48:46;;;;;;;6.10;2.93;;;9.80;89.80;;;;;;5043601;28;20193;-87
2023/03/26 00:51:14;;;;;;;4.53;2.60;;;9.80;90.50;;;;;;5025398;28;20204;-84
2023/03/26 00:53:41;;;;;;;4.07;2.43;;;9.90;90.20;;;;;;5026658;28;20266;-86
2023/03/26 00:56:08;;;;;;;3.40;2.57;;;10.00;89.30;;;;;;5026012;28;20783;-87
2023/03/26 00:58:34;;;;;;;4.43;2.80;;;10.20;86.90;;;;;;5023785;28;20650;-87
2023/03/26 01:01:03;;;;;;;3.73;2.70;;;10.20;87.00;;;;;;5024174;28;20290;-88
2023/03/26 01:03:34;;;;;;;3.13;2.47;;;10.20;87.60;;;;;;5024197;28;20322;-85
2023/03/26 01:06:10;;;;;;;3.47;2.63;;;10.20;88.10;;;;;;5030447;28;20683;-85
2023/03/26 01:08:53;;;;;;;3.37;2.50;;;10.10;87.90;;;;;;5030517;28;20185;-84
2023/03/26 01:11:23;;;;;;;4.40;2.90;;;10.00;88.20;;;;;;5025228;28;20188;-85
2023/03/26 01:13:51;;;;;;;2.93;2.63;;;10.00;88.50;;;;;;5026109;28;20208;-83
2023/03/26 01:16:36;;;;;;;4.73;2.90;;;10.10;89.00;;;;;;5025789;28;20192;-84
2023/03/26 01:19:15;;;;;;;4.37;2.70;;;10.20;87.90;;;;;;5026136;28;20176;-84
2023/03/26 01:21:41;;;;;;;3.77;2.60;;;10.20;87.40;;;;;;5028661;28;20188;-80
2023/03/26 01:24:09;;;;;;;5.17;2.60;;;10.10;89.30;;;;;;5043554;28;20454;-86
2023/03/26 01:27:06;;;;;;;4.40;2.73;;;10.00;89.60;;;;;;5028690;28;20253;-87
2023/03/26 01:29:54;;;;;;;4.50;2.20;;;10.10;89.20;;;;;;5025071;28;20183;-82
2023/03/26 01:33:14;;;;;;;6.63;2.40;;;10.20;87.70;;;;;;5026101;28;20209;-83
2023/03/26 01:35:57;;;;;;;6.33;2.60;;;10.30;87.10;;;;;;4981508;28;20461;-84
2023/03/26 01:38:37;;;;;;;4.67;3.20;;;10.30;86.90;;;;;;5021095;28;20188;-83
2023/03/26 01:41:06;;;;;;;4.00;2.47;;;10.40;86.00;;;;;;5024736;28;20198;-83
2023/03/26 01:43:55;;;;;;;3.10;2.47;;;10.40;85.70;;;;;;5025203;28;20214;-81
2023/03/26 01:46:24;;;;;;;4.17;2.70;;;10.40;85.20;;;;;;5024538;28;20178;-85
2023/03/26 01:48:50;;;;;;;3.53;2.67;;;10.40;87.10;;;;;;5025876;28;20291;-81
2023/03/26 01:51:34;;;;;;;4.30;2.63;;;10.30;88.00;;;;;;5025023;28;20201;-84
2023/03/26 01:54:04;;;;;;;6.80;3.03;;;10.30;86.80;;;;;;5023737;28;20327;-89
2023/03/26 01:56:35;;;;;;;4.63;2.60;;;10.30;87.90;;;;;;5027033;28;20180;-84
2023/03/26 01:59:07;;;;;;;6.00;2.90;;;10.30;87.00;;;;;;5042373;28;20245;-85
2023/03/26 02:01:44;;;;;;;3.90;2.60;;;10.30;85.70;;;;;;5046025;28;20603;-83
2023/03/26 02:04:17;;;;;;;4.37;2.70;;;10.30;85.60;;;;;;5045490;28;20196;-84
2023/03/26 02:07:04;;;;;;;5.13;2.70;;;10.40;84.00;;;;;;5044288;28;20224;-84
2023/03/26 02:09:33;;;;;;;6.57;2.93;;;10.40;84.90;;;;;;5044692;28;20234;-84
2023/03/26 02:12:02;;;;;;;5.57;2.63;;;10.40;85.70;;;;;;5043035;28;20409;-85
2023/03/26 02:14:29;;;;;;;4.10;2.80;;;10.40;85.40;;;;;;5011868;28;20195;-83
2023/03/26 02:16:55;;;;;;;4.70;2.50;;;10.30;85.70;;;;;;5043679;28;20188;-85
2023/03/26 02:19:23;;;;;;;3.53;2.47;;;10.30;84.70;;;;;;5035377;28;20211;-86
2023/03/26 02:21:50;;;;;;;3.73;2.50;;;10.20;85.90;;;;;;5035729;28;20193;-85
2023/03/26 02:24:19;;;;;;;6.43;3.00;;;10.10;86.00;;;;;;5044161;28;20222;-82
2023/03/26 02:26:45;;;;;;;6.50;2.70;;;10.00;86.90;;;;;;5043919;28;20180;-87
2023/03/26 02:29:12;;;;;;;5.77;2.67;;;9.90;88.00;;;;;;5042986;28;20195;-85
2023/03/26 02:31:38;;;;;;;3.77;2.60;;;9.80;87.60;;;;;;5025136;28;20205;-86
2023/03/26 02:34:04;;;;;;;5.07;2.77;;;9.70;88.40;;;;;;5042688;28;20218;-87
2023/03/26 02:36:29;;;;;;;5.07;2.90;;;9.60;88.80;;;;;;5041733;28;20175;-87
2023/03/26 02:38:56;;;;;;;8.30;2.97;;;9.60;89.50;;;;;;5041951;28;20187;-81
2023/03/26 02:41:22;;;;;;;4.03;2.80;;;9.50;89.80;;;;;;5026776;28;20201;-84
2023/03/26 02:43:48;;;;;;;5.63;2.80;;;9.50;89.80;;;;;;5047477;28;20202;-86
2023/03/26 02:46:13;;;;;;;4.30;2.50;;;9.50;90.50;;;;;;5047235;28;20191;-85
2023/03/26 02:48:40;;;;;;;5.80;3.07;;;9.60;89.40;;;;;;5046922;28;20186;-86
2023/03/26 02:51:06;;;;;;;7.10;2.60;;;9.60;89.40;;;;;;5046680;28;20225;-87
2023/03/26 02:53:32;;;;;;;3.90;2.37;;;9.70;89.30;;;;;;5045851;28;20226;-84
2023/03/26 02:55:58;;;;;;;5.20;2.50;;;9.70;88.80;;;;;;5046236;28;20178;-85
2023/03/26 02:58:25;;;;;;;2.90;2.60;;;9.80;87.50;;;;;;5047333;28;20266;-87
2023/03/26 03:00:54;;;;;;;5.80;2.67;;;9.90;87.80;;;;;;5040195;28;20185;-85
2023/03/26 03:03:25;;;;;;;3.23;2.60;;;9.90;88.50;;;;;;5025710;28;20267;-84
2023/03/26 03:05:51;;;;;;;3.87;2.50;;;9.90;88.90;;;;;;5027715;28;20283;-85
2023/03/26 03:08:19;;;;;;;4.80;2.60;;;10.00;86.40;;;;;;5028524;28;20255;-85
2023/03/26 03:10:55;;;;;;;5.20;2.60;;;10.00;87.10;;;;;;5028911;28;20279;-87
2023/03/26 03:13:21;;;;;;;4.93;2.20;;;9.90;87.90;;;;;;5028247;28;20192;-84
2023/03/26 03:15:47;;;;;;;2.60;2.37;;;10.00;89.00;;;;;;5032675;28;20201;-82
2023/03/26 03:18:12;;;;;;;4.90;2.87;;;10.00;88.40;;;;;;5046363;28;20331;-84
2023/03/26 03:20:38;;;;;;;7.57;2.73;;;10.00;88.50;;;;;;5049979;28;20223;-84
2023/03/26 03:23:03;;;;;;;5.73;3.07;;;10.00;88.40;;;;;;5049492;28;20192;-87
2023/03/26 03:25:29;;;;;;;4.83;2.50;;;10.00;89.30;;;;;;5050999;28;20187;-84
2023/03/26 03:27:55;;;;;;;4.87;2.67;;;10.00;91.50;;;;;;5028871;28;20721;-87
2023/03/26 03:30:20;;;;;;;3.27;2.57;;;10.00;92.30;;;;;;5046020;28;20212;-84
2023/03/26 03:32:46;;;;;;;5.03;2.50;;;9.90;93.50;;;;;;5026307;28;20366;-85
2023/03/26 03:35:12;;;;;;;3.43;2.27;;;9.70;96.10;;;;;;5006853;28;20224;-83
2023/03/26 03:37:37;;;;;;;7.23;2.93;;;9.70;96.10;;;;;;5026321;28;20181;-86
2023/03/26 03:40:07;;;;;;;5.60;2.83;;;9.70;95.50;;;;;;5037980;28;20180;-83
2023/03/26 03:42:32;;;;;;;6.13;2.77;;;9.70;93.90;;;;;;5046525;28;20306;-87
2023/03/26 03:44:58;;;;;;;5.27;2.90;;;9.80;93.70;;;;;;5047075;28;20172;-86
2023/03/26 03:47:24;;;;;;;6.13;2.77;;;9.80;93.10;;;;;;5044844;28;20622;-85
2023/03/26 03:49:50;;;;;;;4.33;2.70;;;9.90;93.00;;;;;;5043173;28;20176;-87
2023/03/26 03:52:17;;;;;;;5.23;3.27;;;9.90;93.20;;;;;;5028146;28;20240;-88
2023/03/26 03:54:42;;;;;;;3.83;2.57;;;9.90;93.30;;;;;;5024696;28;20195;-85
2023/03/26 03:57:08;;;;;;;4.47;2.70;;;9.90;92.10;;;;;;5024804;28;20227;-84
2023/03/26 03:59:33;;;;;;;3.87;2.63;;;9.80;92.40;;;;;;5025405;28;20268;-83
2023/03/26 04:01:59;;;;;;;4.20;2.50;;;10.00;92.40;;;;;;5027141;28;20261;-84
2023/03/26 04:04:25;;;;;;;5.40;2.93;;;9.90;91.20;;;;;;5026052;28;20181;-83
2023/03/26 04:06:51;;;;;;;5.87;3.10;;;10.00;91.40;;;;;;5009460;28;20251;-82
2023/03/26 04:09:17;;;;;;;5.40;3.03;;;9.90;92.50;;;;;;5026437;28;20176;-82
2023/03/26 04:11:42;;;;;;;8.07;3.23;;;9.90;91.60;;;;;;5031212;28;20228;-83
2023/03/26 04:14:09;;;;;;;3.43;2.67;;;9.90;92.20;;;;;;5037554;28;20230;-81
2023/03/26 04:16:35;;;;;;;7.43;2.60;;;9.90;93.30;;;;;;5028054;28;20180;-86
2023/03/26 04:19:01;;;;;;;4.00;2.40;;;9.90;92.60;;;;;;5047089;28;20191;-87
2023/03/26 04:21:29;;;;;;;6.27;2.97;;;9.90;92.70;;;;;;5045053;28;20184;-85
2023/03/26 04:23:55;;;;;;;6.37;3.23;;;9.90;93.50;;;;;;5027378;28;20255;-84
2023/03/26 04:26:21;;;;;;;3.10;2.40;;;9.90;93.50;;;;;;5025122;28;20203;-87
2023/03/26 04:28:54;;;;;;;4.27;2.77;;;9.90;93.60;;;;;;5009067;28;20275;-86
2023/03/26 04:31:22;;;;;;;3.70;3.00;;;9.80;94.00;;;;;;5007199;28;20217;-82
2023/03/26 04:33:54;;;;;;;5.73;3.23;;;9.80;93.90;;;;;;5025437;28;20194;-87
2023/03/26 04:36:26;;;;;;;5.67;2.93;;;9.80;93.30;;;;;;5023767;28;20165;-84
2023/03/26 04:38:52;;;;;;;4.87;3.37;;;9.80;93.70;;;;;;5026830;28;20257;-87
2023/03/26 04:41:18;;;;;;;5.77;3.53;;;9.80;94.80;;;;;;5027065;28;20196;-85
2023/03/26 04:43:49;;;;;;;8.50;3.40;;;9.70;96.40;;;;;;5026377;28;20201;-88
2023/03/26 04:46:22;;;;;;;4.73;2.70;;;9.70;96.70;;;;;;5025679;28;20211;-83
2023/03/26 04:48:52;;;;;;;5.03;2.70;;;9.80;96.70;;;;;;5028011;28;20172;-83
2023/03/26 04:51:23;;;;;;;4.57;2.70;;;9.90;96.10;;;;;;5043828;28;20215;-84
2023/03/26 04:54:01;;;;;;;4.33;2.53;;;9.90;96.10;;;;;;5044337;28;20203;-81
2023/03/26 04:56:48;;;;;;;3.87;2.77;;;9.80;96.30;;;;;;5029818;28;20187;-85
2023/03/26 04:59:18;;;;;;;5.47;2.70;;;9.80;96.30;;;;;;5027171;28;20180;-86
2023/03/26 05:01:47;;;;;;;5.13;3.00;;;9.80;96.20;;;;;;5026044;28;20256;-86
2023/03/26 05:04:12;;;;;;;6.77;3.10;;;9.80;94.70;;;;;;5025447;28;20212;-84
2023/03/26 05:06:40;;;;;;;4.30;2.93;;;9.90;93.80;;;;;;5008294;28;20341;-86
2023/03/26 05:09:07;;;;;;;4.17;3.03;;;9.90;94.30;;;;;;5033742;28;20203;-85
2023/03/26 05:11:33;;;;;;;7.60;3.17;;;9.80;94.20;;;;;;5041960;28;20219;-85
2023/03/26 05:13:58;;;;;;;4.80;2.97;;;9.60;96.60;;;;;;5026695;28;20208;-83
2023/03/26 05:16:24;;;;;;;6.73;3.40;;;9.60;97.30;;;;;;5025747;28;20196;-85
2023/03/26 05:18:50;;;;;;;7.80;4.73;;;9.70;96.90;;;;;;5027593;28;20182;-85
2023/03/26 05:21:16;;;;;;;5.03;3.70;;;9.60;94.60;;;;;;5027035;28;20305;-88
2023/03/26 05:23:42;;;;;;;3.53;2.73;;;9.60;95.60;;;;;;5024533;28;20293;-81
2023/03/26 05:26:08;;;;;;;5.30;3.00;;;9.70;96.30;;;;;;5023232;28;20555;-85
2023/03/26 05:28:34;;;;;;;5.23;3.00;;;9.70;97.20;;;;;;5025644;28;20244;-83
2023/03/26 05:31:01;;;;;;;5.93;3.00;;;9.60;96.40;;;;;;5035542;28;20575;-88
2023/03/26 05:33:27;;;;;;;5.50;3.10;;;9.60;96.40;;;;;;5044712;28;20288;-85
2023/03/26 05:36:06;;;;;;;6.17;3.60;;;9.50;97.90;;;;;;5043662;28;20214;-85
2023/03/26 05:38:32;;;;;;;5.53;3.30;;;9.50;97.80;;;;;;5020769;28;20227;-82
2023/03/26 05:40:59;;;;;;;4.57;3.63;;;9.60;97.90;;;;;;5005830;28;20180;-90
2023/03/26 05:43:28;;;;;;;6.37;4.20;;;9.70;97.70;;;;;;5024467;28;20625;-84
2023/03/26 05:45:54;;;;;;;5.90;4.27;;;9.70;98.90;;;;;;5021873;28;20262;-86
2023/03/26 05:48:20;;;;;;;6.90;3.90;;;9.70;99.20;;;;;;5023278;28;20180;-87
2023/03/26 05:50:56;;;;;;;4.90;3.20;;;9.70;99.50;;;;;;5024059;28;20200;-86
2023/03/26 05:53:23;;;;;;;6.73;3.33;;;9.80;98.50;;;;;;5003421;28;20235;-84
2023/03/26 05:55:54;;;;;;;6.30;3.30;;;9.80;98.30;;;;;;5027464;28;20184;-87
2023/03/26 05:58:20;;;;;;;9.37;4.13;;;9.80;98.00;;;;;;5007049;28;20252;-87
2023/03/26 06:00:47;;;;;;;7.40;3.30;;;9.70;97.80;;;;;;5024244;28;20202;-82
2023/03/26 06:03:13;;;;;;;5.60;3.07;;;9.90;99.20;;;;;;5025593;28;20205;-85
2023/03/26 06:05:39;;;;;;;8.90;5.40;;;9.80;99.00;;;;;;5028687;28;20226;-90
2023/03/26 06:08:06;;;;;;;5.40;4.30;;;9.90;98.70;;;;;;5030286;28;20177;-84
2023/03/26 06:10:31;;;;;;;7.20;3.17;;;9.90;98.30;;;;;;5024872;28;20200;-85
2023/03/26 06:13:00;;;;;;;5.43;3.43;;;9.80;98.80;;;;;;5027989;28;20203;-87
2023/03/26 06:15:26;;;;;;;5.40;3.17;;;9.80;99.60;;;;;;5010639;28;20179;-82
2023/03/26 06:17:51;;;;;;;4.80;2.97;;;9.80;99.30;;;;;;5031264;28;20209;-89
2023/03/26 06:20:17;;;;;;;5.67;3.60;;;9.80;99.90;;;;;;5030360;28;20201;-85
2023/03/26 06:22:43;;;;;;;6.00;3.77;;;9.80;99.90;;;;;;5011915;28;20219;-87
2023/03/26 06:25:08;;;;;;;6.83;3.10;;;9.60;99.90;;;;;;5029374;28;20191;-85
2023/03/26 06:27:34;;;;;;;5.37;2.70;;;9.60;99.90;;;;;;5030009;28;20188;-80
2023/03/26 06:29:59;;;;;;;4.83;3.00;;;9.40;99.90;;;;;;5029395;28;20192;-83
2023/03/26 06:32:25;;;;;;;5.23;3.07;;;9.40;99.90;;;;;;5025148;23;20237;-83
2023/03/26 06:34:51;;;;;;;4.90;3.03;;;9.50;99.90;;;;;;5022656;28;20242;-83
2023/03/26 06:37:16;;;;;;;3.97;2.90;;;9.50;99.90;;;;;;5017952;28;20209;-82
2023/03/26 06:39:42;;;;;;;5.03;3.20;;;9.60;99.90;;;;;;5016037;28;20268;-87
2023/03/26 06:42:08;;;;;;;5.17;2.90;;;9.70;99.90;;;;;;5009821;28;20236;-81
2023/03/26 06:44:33;;;;;;;7.63;3.10;;;9.80;99.90;;;;;;4993265;28;20190;-84
2023/03/26 06:46:59;;;;;;;7.53;3.40;;;9.70;99.90;;;;;;4995440;28;20185;-85
2023/03/26 06:49:24;;;;;;;6.53;2.93;;;9.80;99.90;;;;;;4985051;28;20189;-85
2023/03/26 06:51:50;;;;;;;7.93;3.30;;;9.80;99.90;;;;;;4987379;28;20224;-84
2023/03/26 06:54:16;;;;;;;4.53;3.13;;;9.80;99.90;;;;;;4988209;28;20209;-86
2023/03/26 06:56:41;;;;;;;5.10;3.33;;;9.70;99.90;;;;;;4987280;28;20452;-84
2023/03/26 06:59:07;;;;;;;7.33;3.30;;;9.70;99.90;;;;;;4987597;28;20184;-82
2023/03/26 07:01:33;;;;;;;6.33;3.60;;;9.70;99.90;;;;;;4987066;28;20221;-84
2023/03/26 07:03:59;;;;;;;6.20;3.60;;;9.80;99.90;;;;;;4986979;28;20197;-84
2023/03/26 07:06:25;;;;;;;6.77;5.50;;;9.90;99.90;;;;;;4987190;28;20189;-84
2023/03/26 07:08:51;;;;;;;11.07;10.00;;;9.80;99.90;;;;;;4988853;28;20187;-85
2023/03/26 07:11:18;;;;;;;13.93;6.00;;;9.80;99.90;;;;;;4989198;28;20215;-86
2023/03/26 07:13:46;;;;;;;7.63;3.77;;;9.80;99.90;;;;;;4989238;28;20174;-87
2023/03/26 07:16:12;;;;;;;7.10;3.87;;;9.70;99.90;;;;;;4991701;28;20177;-87
2023/03/26 07:18:38;;;;;;;4.57;4.03;;;9.60;99.90;;;;;;5003826;28;20242;-87
2023/03/26 07:21:04;;;;;;;5.77;4.03;;;9.70;99.90;;;;;;4988996;28;20211;-85
2023/03/26 07:23:31;;;;;;;6.93;3.80;;;9.60;99.90;;;;;;4992668;28;20199;-86
2023/03/26 07:25:57;;;;;;;6.87;3.67;;;9.50;99.90;;;;;;4987131;28;20188;-84
2023/03/26 07:28:32;;;;;;;6.03;3.73;;;9.60;99.90;;;;;;4984854;28;20187;-87
2023/03/26 07:31:20;;;;;;;6.17;3.87;;;9.80;99.90;;;;;;4992968;28;20195;-83
2023/03/26 07:33:54;;;;;;;5.43;3.23;;;9.60;99.90;;;;;;4997300;28;20199;-84
2023/03/26 07:36:23;;;;;;;5.90;3.87;;;9.70;99.90;;;;;;4996003;28;20188;-86
2023/03/26 07:39:08;;;;;;;5.67;3.53;;;9.80;99.90;;;;;;4992196;28;20260;-86
2023/03/26 07:41:47;;;;;;;5.20;3.70;;;9.80;99.90;;;;;;4991746;28;20205;-85
2023/03/26 07:44:34;;;;;;;6.10;3.57;;;9.80;99.90;;;;;;4991168;28;20198;-85
2023/03/26 07:47:04;;;;;;;6.37;3.50;;;9.80;99.90;;;;;;4992841;28;20199;-84
2023/03/26 07:49:30;;;;;;;5.73;3.10;;;9.70;99.90;;;;;;4996357;28;20218;-87
2023/03/26 07:51:56;;;;;;;5.97;3.50;;;9.70;99.90;;;;;;4986000;28;20238;-84
2023/03/26 07:54:22;;;;;;;9.53;5.17;;;9.80;99.90;;;;;;4986891;28;20186;-85
2023/03/26 07:57:03;;;;;;;5.27;4.20;;;9.80;99.90;;;;;;4986368;28;20196;-83
2023/03/26 07:59:56;;;;;;;7.70;4.03;;;9.70;99.90;;;;;;4992327;28;20203;-85
2023/03/26 08:03:11;;;;;;;5.63;3.47;;;9.70;99.90;;;;;;4997763;28;20242;-85
2023/03/26 08:06:03;;;;;;;5.87;3.60;;;9.70;99.90;;;;;;4956447;28;20182;-87
2023/03/26 08:08:42;;;;;;;4.67;3.63;;;9.70;99.90;;;;;;5002579;28;20248;-85
2023/03/26 08:11:27;;;;;;;5.53;3.27;;;9.70;99.90;;;;;;4998378;28;20188;-87
2023/03/26 08:13:58;;;;;;;5.70;3.33;;;9.60;99.90;;;;;;4998481;28;20178;-87
2023/03/26 08:16:31;;;;;;;5.40;3.43;;;9.50;99.90;;;;;;4993377;28;20239;-84
2023/03/26 08:19:40;;;;;;;5.80;3.80;;;9.40;99.90;;;;;;4988926;28;20227;-85
2023/03/26 08:22:25;;;;;;;6.53;3.60;;;9.50;99.90;;;;;;4984282;28;20233;-87
2023/03/26 08:24:58;;;;;;;4.73;3.60;;;9.40;99.90;;;;;;4991153;28;20313;-85
2023/03/26 08:27:37;;;;;;;7.07;4.00;;;9.40;99.90;;;;;;4992208;28;20195;-86
2023/03/26 08:30:24;;;;;;;8.20;3.27;;;9.40;99.90;;;;;;4986172;28;20206;-87
2023/03/26 08:32:56;;;;;;;4.30;3.20;;;9.50;99.90;;;;;;4991093;28;20234;-85
2023/03/26 08:35:26;;;;;;;4.93;3.33;;;9.50;99.90;;;;;;4984593;28;20175;-83
2023/03/26 08:37:52;;;;;;;5.53;2.90;;;9.60;99.90;;;;;;4999352;28;20178;-85
2023/03/26 08:40:43;;;;;;;5.40;3.17;;;9.60;99.90;;;;;;4989594;28;20201;-84
2023/03/26 08:43:37;;;;;;;4.10;2.83;;;9.60;99.90;;;;;;4986043;28;20487;-85
2023/03/26 08:46:23;;;;;;;6.13;2.83;;;9.50;99.90;;;;;;4985759;28;20176;-84
2023/03/26 08:49:37;;;;;;;8.83;3.47;;;9.80;99.90;;;;;;4980490;28;20175;-85
2023/03/26 08:52:09;;;;;;;3.37;2.73;;;9.80;99.90;;;;;;4979733;28;20249;-87
2023/03/26 08:55:17;;;;;;;5.67;3.77;;;9.90;99.90;;;;;;4988605;28;20232;-84
2023/03/26 08:58:08;;;;;;;5.70;3.03;;;9.80;99.90;;;;;;4958331;28;20203;-85
2023/03/26 09:01:11;;;;;;;4.13;2.90;;;9.80;99.90;;;;;;4982768;28;20183;-84
2023/03/26 09:04:01;;;;;;;6.93;3.80;;;10.10;99.90;;;;;;4981965;28;20600;-84
2023/03/26 09:07:00;;;;;;;4.10;2.93;;;10.10;99.90;;;;;;4981540;28;20183;-83
2023/03/26 09:09:56;;;;;;;8.70;2.90;;;10.10;99.90;;;;;;4982424;28;20323;-83
2023/03/26 09:12:59;;;;;;;7.33;3.83;;;9.90;99.90;;;;;;4980735;28;20225;-83
2023/03/26 09:15:34;;;;;;;4.73;2.87;;;10.10;99.90;;;;;;4974899;28;20676;-84
2023/03/26 09:18:42;;;;;;;4.93;3.07;;;10.10;99.90;;;;;;4981025;28;20177;-84
2023/03/26 09:21:21;;;;;;;6.77;3.33;;;10.30;99.90;;;;;;4979492;28;20180;-87
2023/03/26 09:23:48;;;;;;;6.33;3.20;;;10.50;99.90;;;;;;4981308;28;20165;-85
2023/03/26 09:26:37;;;;;;;7.93;3.17;;;10.60;99.90;;;;;;4980472;28;20171;-83
2023/03/26 09:29:39;;;;;;;5.00;2.80;;;10.70;99.90;;;;;;4979843;28;20205;-81
2023/03/26 09:32:13;;;;;;;4.73;2.87;;;11.10;99.90;;;;;;4979122;28;20216;-83
2023/03/26 09:35:00;;;;;;;4.95;3.03;;;11.30;99.90;;;;;;4979674;28;20505;-82
2023/03/26 09:37:47;;;;;;;2.80;2.60;;;11.50;99.90;;;;;;4980759;28;20173;-84
2023/03/26 09:40:18;;;;;;;4.43;2.87;;;11.80;99.90;;;;;;4979780;28;20198;-83
2023/03/26 09:42:45;;;;;;;4.70;2.80;;;12.20;99.90;;;;;;4983419;28;20191;-84
2023/03/26 09:45:26;;;;;;;3.57;2.53;;;12.40;97.00;;;;;;4982697;28;20629;-84
2023/03/26 09:48:14;;;;;;;3.63;2.40;;;12.50;94.40;;;;;;4980359;28;20164;-84
2023/03/26 09:51:02;;;;;;;4.07;2.97;;;12.50;98.10;;;;;;4978951;28;20410;-84
2023/03/26 09:53:46;;;;;;;4.43;2.50;;;12.20;94.80;;;;;;4980581;28;20233;-84
2023/03/26 09:56:43;;;;;;;2.53;2.10;;;12.20;95.70;;;;;;4977809;28;20167;-83
2023/03/26 09:59:21;;;;;;;2.93;2.63;;;12.50;91.90;;;;;;4980728;28;20164;-87
2023/03/26 10:02:11;;;;;;;3.43;2.13;;;12.60;86.10;;;;;;4989621;28;20211;-86
2023/03/26 10:04:45;;;;;;;5.80;3.17;;;12.70;84.40;;;;;;4985031;28;20199;-85
2023/03/26 10:07:36;;;;;;;5.30;2.33;;;13.00;88.30;;;;;;4981893;28;20208;-83
2023/03/26 10:10:07;;;;;;;3.50;2.30;;;13.00;79.00;;;;;;4985747;28;20261;-85
2023/03/26 10:12:41;;;;;;;3.00;1.97;;;13.10;76.80;;;;;;4985333;28;20213;-85
2023/03/26 10:15:32;;;;;;;3.83;2.50;;;13.30;73.40;;;;;;4979754;28;20198;-85
2023/03/26 10:18:20;;;;;;;2.77;2.27;;;13.40;69.30;;;;;;4981494;28;20185;-84
2023/03/26 10:21:00;;;;;;;3.03;2.00;;;13.50;66.80;;;;;;4982748;28;20240;-82
2023/03/26 10:23:47;;;;;;;3.67;2.03;;;13.60;67.10;;;;;;4979433;28;20183;-83
2023/03/26 10:26:33;;;;;;;3.03;1.90;;;13.40;66.50;;;;;;4977422;28;20212;-88
2023/03/26 10:29:16;;;;;;;2.33;1.67;;;13.30;60.90;;;;;;4977953;28;20192;-83
2023/03/26 10:31:45;;;;;;;3.20;2.07;;;13.40;58.90;;;;;;4976707;28;20219;-85
2023/03/26 10:34:26;;;;;;;3.37;2.13;;;13.60;60.50;;;;;;4977316;28;20183;-85
2023/03/26 10:37:09;;;;;;;2.00;1.70;;;13.80;59.50;;;;;;4982674;28;20196;-85
2023/03/26 10:40:08;;;;;;;1.93;1.83;;;14.10;59.00;;;;;;4986698;28;20187;-83
2023/03/26 10:42:52;;;;;;;2.97;2.00;;;14.00;55.50;;;;;;4981250;28;20876;-86
2023/03/26 10:45:36;;;;;;;3.00;1.70;;;14.10;54.90;;;;;;4978607;28;20933;-83
2023/03/26 10:48:22;;;;;;;2.17;1.77;;;14.10;56.40;;;;;;4980754;28;20258;-84
2023/03/26 10:50:56;;;;;;;2.63;2.43;;;14.40;54.70;;;;;;4979572;28;20285;-85
2023/03/26 10:53:29;;;;;;;5.40;1.87;;;14.30;53.40;;;;;;4978762;28;20190;-86
2023/03/26 10:56:05;;;;;;;1.87;1.67;;;14.60;50.60;;;;;;4981039;28;20191;-85
2023/03/26 10:58:33;;;;;;;1.87;1.40;;;14.50;50.00;;;;;;4982987;28;20274;-83
2023/03/26 11:01:02;;;;;;;2.87;2.03;;;14.60;49.20;;;;;;4992216;28;20213;-83
2023/03/26 11:03:46;;;;;;;3.37;2.00;;;14.60;50.00;;;;;;5000151;28;20186;-86
2023/03/26 11:06:45;;;;;;;2.27;1.90;;;14.80;49.60;;;;;;5003142;28;20675;-84
2023/03/26 11:09:15;;;;;;;2.07;1.80;;;14.60;50.00;;;;;;5001244;28;20204;-82
2023/03/26 11:12:22;;;;;;;3.33;1.70;;;14.20;49.40;;;;;;5002933;28;20241;-84
2023/03/26 11:15:06;;;;;;;2.33;1.73;;;14.60;51.80;;;;;;4994105;28;20661;-83
2023/03/26 11:17:36;;;;;;;2.20;1.90;;;14.80;48.80;;;;;;5003943;28;20177;-86
2023/03/26 11:20:29;;;;;;;1.83;1.70;;;15.30;51.80;;;;;;5003810;28;20185;-88
2023/03/26 11:23:20;;;;;;;2.60;1.77;;;15.20;46.10;;;;;;4997185;28;20226;-86
2023/03/26 11:26:14;;;;;;;4.60;1.90;;;15.10;49.60;;;;;;5003684;28;20167;-86
2023/03/26 11:29:10;;;;;;;2.93;2.07;;;15.00;49.60;;;;;;5009122;28;20198;-85
2023/03/26 11:31:57;;;;;;;2.20;1.70;;;15.20;50.10;;;;;;5002896;28;20226;-87
2023/03/26 11:34:32;;;;;;;2.03;1.80;;;15.20;49.30;;;;;;5003872;28;20178;-82
2023/03/26 11:37:01;;;;;;;3.30;2.00;;;15.20;49.50;;;;;;5004770;28;20186;-84
2023/03/26 11:39:32;;;;;;;2.87;1.93;;;15.40;49.20;;;;;;5005259;28;20240;-87
2023/03/26 11:42:08;;;;;;;3.17;1.97;;;15.50;47.30;;;;;;4997815;28;20199;-84
2023/03/26 11:44:51;;;;;;;2.73;1.80;;;15.80;47.90;;;;;;4983286;28;20251;-82
2023/03/26 11:47:22;;;;;;;2.67;2.00;;;16.00;50.40;;;;;;4985998;28;20222;-84
2023/03/26 11:49:50;;;;;;;2.47;1.80;;;16.30;47.10;;;;;;4984459;28;20274;-88
2023/03/26 11:52:16;;;;;;;3.20;2.53;;;16.00;47.70;;;;;;4984337;28;20224;-88
2023/03/26 11:54:47;;;;;;;4.47;2.40;;;16.00;47.70;;;;;;4985611;28;20200;-86
2023/03/26 11:57:25;;;;;;;2.97;2.70;;;16.20;49.60;;;;;;4986321;28;20166;-83
2023/03/26 12:00:16;;;;;;;4.33;1.90;;;15.90;47.90;;;;;;4987236;28;20536;-86
2023/03/26 12:02:45;;;;;;;3.53;2.10;;;16.20;51.00;;;;;;4985725;28;20199;-86
2023/03/26 12:05:25;;;;;;;4.63;2.40;;;16.30;47.50;;;;;;4985311;28;20174;-85
2023/03/26 12:08:18;;;;;;;4.00;2.00;;;16.20;49.00;;;;;;4984175;28;20180;-84
2023/03/26 12:10:57;;;;;;;2.77;1.90;;;15.90;47.40;;;;;;4984845;28;20212;-83
2023/03/26 12:13:37;;;;;;;2.50;2.17;;;15.90;47.60;;;;;;4985523;28;20188;-83
2023/03/26 12:16:23;;;;;;;4.50;2.80;;;16.30;45.80;;;;;;4985386;28;20165;-86
2023/03/26 12:19:05;;;;;;;2.33;2.13;;;16.90;45.90;;;;;;4984723;28;20224;-86
2023/03/26 12:21:45;;;;;;;2.90;2.37;;;17.00;43.20;;;;;;4986018;28;20207;-84
2023/03/26 12:24:25;;;;;;;2.40;2.07;;;17.30;40.60;;;;;;4985662;28;20447;-83
2023/03/26 12:27:00;;;;;;;3.63;2.43;;;17.20;41.30;;;;;;4983957;28;20185;-87
2023/03/26 12:29:28;;;;;;;4.10;2.30;;;17.30;43.70;;;;;;4984841;28;20170;-82
2023/03/26 12:32:02;;;;;;;4.43;2.37;;;17.30;39.40;;;;;;4985773;28;20235;-86
2023/03/26 12:34:34;;;;;;;2.83;2.37;;;17.60;40.80;;;;;;4985188;28;20183;-84
2023/03/26 12:37:02;;;;;;;3.90;2.10;;;17.20;40.60;;;;;;4985813;28;20176;-86
2023/03/26 12:39:37;;;;;;;3.07;2.10;;;17.50;39.00;;;;;;4975447;28;20190;-85
2023/03/26 12:42:06;;;;;;;4.07;2.37;;;17.20;37.80;;;;;;4984632;28;20215;-85
2023/03/26 12:44:43;;;;;;;2.53;2.33;;;16.60;41.40;;;;;;4984573;28;20187;-86
2023/03/26 12:47:20;;;;;;;4.53;2.20;;;16.50;41.10;;;;;;4983285;28;20349;-89
2023/03/26 12:49:48;;;;;;;3.97;2.40;;;16.80;41.40;;;;;;4984285;28;20201;-84
2023/03/26 12:52:29;;;;;;;4.20;2.23;;;16.90;43.00;;;;;;4989482;28;20209;-88
2023/03/26 12:55:05;;;;;;;4.83;2.23;;;17.10;40.20;;;;;;4985930;28;20204;-83
2023/03/26 12:57:39;;;;;;;2.63;2.10;;;17.30;39.30;;;;;;4984142;28;20176;-86
2023/03/26 13:00:30;;;;;;;3.00;2.27;;;17.70;39.60;;;;;;4988031;28;20156;-90
2023/03/26 13:03:12;;;;;;;3.13;2.10;;;16.80;41.40;;;;;;4993979;28;20298;-89
2023/03/26 13:05:46;;;;;;;4.23;2.30;;;16.40;43.70;;;;;;4997702;28;20189;-89
2023/03/26 13:08:38;;;;;;;2.97;2.07;;;16.40;43.80;;;;;;4994950;28;20214;-94
2023/03/26 13:11:12;;;;;;;3.63;2.80;;;16.30;41.40;;;;;;4994426;28;20205;-84
2023/03/26 13:14:09;;;;;;;2.70;2.13;;;16.20;41.50;;;;;;4989010;28;20163;-88
2023/03/26 13:17:06;;;;;;;2.90;2.10;;;16.20;42.20;;;;;;4984757;28;20179;-88
2023/03/26 13:20:25;;;;;;;4.57;2.20;;;16.10;42.20;;;;;;4992047;28;20160;-84
2023/03/26 13:23:08;;;;;;;3.07;1.83;;;15.80;40.20;;;;;;4982100;28;20220;-86
2023/03/26 13:25:42;;;;;;;2.23;1.93;;;15.60;40.40;;;;;;4990177;28;20171;-89
2023/03/26 13:28:45;;;;;;;2.67;1.90;;;15.50;41.10;;;;;;4976376;28;20210;-91
2023/03/26 13:31:18;;;;;;;3.13;2.10;;;15.10;41.40;;;;;;4982444;28;20381;-87